Accueil
METAR-TAF:

METAR-TAF

Aéroports :

Aéroport de Luanda-Quatro de Fevereiro

Luanda, Angola

latitude: 08-51S, longitude: 013-14E, altitude: 74 m

Observation

Le bulletin a été fait il y a 46 minutes, à 05:00 UTC
Vent 6 kt de sud/sud-est
Température 25°C
Humidité 89%
Pression 1011 hPa
Visibilité: 8000 m
Quelques nuages à une hauteur de 2000 ft
Nuages fragmentés à une hauteur de 2200 ft

METAR: FNLU 240500Z 15006KT 8000 FEW020 BKN022 25/23 Q1011 NOSIG

Heure: 06:46 (05:46 UTC)

Prévision

Le bulletin a été fait il y a 46 minutes, à 05:00 UTC
Prévision valable du 24 à 06 UTC au 25 à 12 UTC
Vent 7 kt de sud/sud-est
Visibilité: 8000 m
Nuages fragmentés à une hauteur de 2000 ft
Nuages épars à une hauteur de 2500 ft
Temporairement
du 24 à 13 UTC au 24 à 18 UTC
Vent 12 kt de ouest/sud-ouest
Visibilité 10 km ou plus

TAF: FNLU 240500Z 2406/2512 16007KT 8000 BKN020 SCT025 TEMPO 2413/2418 24012KT 9999 NSC

Observations et prévisions météorologiques de plus de 4000 aéroports (messages METAR et TAF).

Les stations disponibles sont représentées par des disques jaunes et rouges sur la carte.

Passer la souris dessus pour voir le nom de la station.

Cliquer dessus pour voir les observations et prévisions météorologiques.

Pour changer de carte: cliquez sur les boutons verts avec une croix noire pour zoomer, sur le bouton vert avec un tiret pour effectuer un zoom arrière, ou sur les flèches vertes pour les cartes adjacentes.


METAR-TAF: